Time;durP1;ratioP1;P1;durP2;ratioP2;P2;SDS_P1;SDS_P2;PMS_P1;PMS_P2;Temp;Humidity;BMP_temperature;BMP_pressure;BME280_temperature;BME280_humidity;BME280_pressure;Samples;Min_cycle;Max_cycle;Signal;HPM_P1;HPM_P2
2022/01/26 00:00:18;;;;;;;151.70;44.70;;;;;;;1.13;100.00;101939.59;4917921;29;20091;-83
2022/01/26 00:08:11;;;;;;;148.00;46.75;;;;;;;1.38;100.00;101921.91;4919367;29;20048;-84
2022/01/26 00:10:40;;;;;;;142.02;44.05;;;;;;;1.31;100.00;101926.53;4919711;29;20085;-84
2022/01/26 00:13:05;;;;;;;149.75;43.90;;;;;;;1.32;100.00;101917.81;4918480;29;20040;-83
2022/01/26 00:15:31;;;;;;;159.02;44.80;;;;;;;1.27;100.00;101921.53;4920050;29;20088;-84
2022/01/26 00:17:57;;;;;;;158.02;45.00;;;;;;;1.43;100.00;101918.16;4918496;29;20071;-84
2022/01/26 00:20:29;;;;;;;152.80;43.42;;;;;;;1.36;100.00;101919.34;4931794;29;20080;-85
2022/01/26 00:23:21;;;;;;;158.07;44.92;;;;;;;1.38;100.00;101916.69;4941409;29;20067;-82
2022/01/26 00:26:07;;;;;;;148.35;42.88;;;;;;;1.61;100.00;101913.84;4940890;29;20016;-81
2022/01/26 00:28:58;;;;;;;151.93;44.83;;;;;;;1.75;100.00;101914.06;4941319;29;20040;-83
2022/01/26 00:38:34;;;;;;;151.68;43.72;;;;;;;1.63;100.00;101911.16;4918730;29;20106;-83
2022/01/26 00:39:52;;;;;;;160.48;44.50;;;;;;;1.67;100.00;101912.72;4919092;29;20052;-82
2022/01/26 00:42:18;;;;;;;159.27;45.03;;;;;;;1.74;100.00;101903.66;4921816;29;20044;-82
2022/01/26 00:44:47;;;;;;;155.38;46.10;;;;;;;1.74;100.00;101898.44;4918876;29;20478;-82
2022/01/26 00:47:14;;;;;;;158.50;44.10;;;;;;;1.89;100.00;101901.16;4919385;29;20168;-81
2022/01/26 00:49:40;;;;;;;140.80;42.35;;;;;;;2.08;100.00;101898.53;4934359;29;20032;-82
2022/01/26 00:52:08;;;;;;;152.02;44.92;;;;;;;1.99;100.00;101896.34;4922234;29;20062;-83
2022/01/26 00:54:34;;;;;;;143.27;42.55;;;;;;;1.85;100.00;101885.72;4919402;29;20114;-83
2022/01/26 00:57:00;;;;;;;158.23;45.38;;;;;;;1.80;100.00;101887.69;4918469;29;20048;-83
2022/01/26 00:59:25;;;;;;;159.95;46.53;;;;;;;1.48;100.00;101892.69;4918528;29;20040;-83
2022/01/26 01:01:51;;;;;;;170.07;48.00;;;;;;;1.51;100.00;101886.47;4918595;29;20130;-84
2022/01/26 01:04:17;;;;;;;165.93;48.15;;;;;;;1.32;100.00;101886.47;4918838;29;20040;-83
2022/01/26 01:06:51;;;;;;;171.88;48.63;;;;;;;1.23;100.00;101892.09;4918966;29;20032;-83
2022/01/26 01:09:17;;;;;;;165.10;45.78;;;;;;;1.17;100.00;101891.50;4928040;29;20036;-82
2022/01/26 01:11:43;;;;;;;160.13;47.42;;;;;;;1.16;100.00;101890.66;4928990;29;20036;-81
2022/01/26 01:14:10;;;;;;;173.80;49.65;;;;;;;1.03;100.00;101879.91;4929276;29;20040;-82
2022/01/26 01:16:35;;;;;;;177.20;51.03;;;;;;;0.93;100.00;101883.84;4928297;29;20036;-81
2022/01/26 01:27:47;;;;;;;173.20;47.92;;;;;;;0.97;100.00;101884.56;4925876;29;20060;-80
2022/01/26 01:29:42;;;;;;;177.63;51.47;;;;;;;0.89;100.00;101882.31;4917928;29;20502;-81
2022/01/26 01:32:15;;;;;;;182.95;52.17;;;;;;;1.00;100.00;101879.22;4920102;29;20044;-81
2022/01/26 01:34:40;;;;;;;;;;;;;;;0.96;100.00;101882.91;4922180;29;20129;-80
2022/01/26 01:37:09;;;;;;;177.38;47.72;;;;;;;1.01;100.00;101876.53;4919445;29;19919;-82
2022/01/26 01:39:38;;;;;;;183.90;49.88;;;;;;;1.41;100.00;101877.34;4919002;29;20116;-82
2022/01/26 01:42:06;;;;;;;153.43;46.47;;;;;;;1.56;100.00;101872.25;4916931;29;20075;-83
2022/01/26 01:44:32;;;;;;;168.18;49.67;;;;;;;1.65;100.00;101875.38;4916866;29;20036;-83
2022/01/26 01:46:58;;;;;;;155.45;45.90;;;;;;;1.31;100.00;101869.09;4918064;29;20038;-82
2022/01/26 01:49:24;;;;;;;156.85;45.22;;;;;;;1.37;100.00;101862.72;4918043;29;20493;-84
2022/01/26 01:51:58;;;;;;;161.65;45.55;;;;;;;1.37;100.00;101868.81;4918231;29;20063;-84
2022/01/26 01:54:24;;;;;;;168.48;45.70;;;;;;;1.42;100.00;101866.00;4919034;29;20083;-84
2022/01/26 01:56:56;;;;;;;137.00;42.78;;;;;;;1.51;100.00;101871.63;4922161;29;20040;-83
2022/01/26 01:59:25;;;;;;;150.30;44.92;;;;;;;1.37;100.00;101867.94;4933096;29;20112;-85
2022/01/26 02:01:50;;;;;;;152.52;42.47;;;;;;;1.40;100.00;101868.66;4918764;29;20036;-84
2022/01/26 02:04:18;;;;;;;141.85;42.55;;;;;;;1.25;100.00;101861.53;4917008;29;20036;-84
2022/01/26 02:06:44;;;;;;;143.98;43.08;;;;;;;1.20;100.00;101866.13;4917276;29;20040;-84
2022/01/26 02:09:11;;;;;;;158.75;44.92;;;;;;;1.33;100.00;101856.81;4916789;29;20043;-86
2022/01/26 02:11:54;;;;;;;156.27;42.10;;;;;;;1.18;100.00;101852.28;4917503;29;20048;-85
2022/01/26 02:14:29;;;;;;;141.68;40.90;;;;;;;1.29;100.00;101844.81;4917578;29;20107;-85
2022/01/26 02:19:57;;;;;;;178.57;41.25;;;;;;;1.38;100.00;101839.16;4917258;29;20040;-84
2022/01/26 03:01:00;;;;;;;137.70;40.38;;;;;;;0.27;100.00;101798.94;4916763;29;20092;-83
2022/01/26 03:03:38;;;;;;;131.40;41.65;;;;;;;0.21;100.00;101794.00;4916180;29;20079;-84
2022/01/26 03:06:13;;;;;;;144.23;40.17;;;;;;;0.25;100.00;101805.97;4927625;29;20048;-83
2022/01/26 03:08:49;;;;;;;152.90;44.13;;;;;;;0.34;100.00;101805.59;4923744;29;20079;-82
2022/01/26 03:11:15;;;;;;;152.45;44.10;;;;;;;0.32;100.00;101797.00;4917445;29;20039;-83
2022/01/26 03:13:48;;;;;;;151.63;44.08;;;;;;;0.38;100.00;101796.72;4917875;29;20508;-84
2022/01/26 03:16:26;;;;;;;;;;;;;;;0.30;100.00;101792.75;4917664;29;20044;-84
2022/01/26 03:21:33;;;;;;;238.85;44.88;;;;;;;0.22;100.00;101789.63;4920227;29;20068;-83
2022/01/26 03:34:51;;;;;;;198.65;45.90;;;;;;;0.48;100.00;101787.59;4920377;29;20067;-83
2022/01/26 03:37:16;;;;;;;193.82;44.72;;;;;;;0.43;100.00;101783.50;4919570;29;20063;-84
2022/01/26 03:39:44;;;;;;;319.20;46.80;;;;;;;0.29;100.00;101776.28;4920346;29;20032;-84
2022/01/26 03:42:13;;;;;;;262.48;48.13;;;;;;;0.48;100.00;101777.16;4918485;29;20109;-84
2022/01/26 03:44:40;;;;;;;142.02;45.78;;;;;;;0.51;100.00;101774.41;4919945;29;20487;-84
2022/01/26 03:47:06;;;;;;;166.50;45.05;;;;;;;0.60;100.00;101775.75;4920367;29;20386;-83
2022/01/26 03:49:32;;;;;;;187.15;45.75;;;;;;;0.60;100.00;101780.16;4920247;29;20024;-83
2022/01/26 03:51:57;;;;;;;173.63;43.85;;;;;;;0.46;100.00;101784.19;4919966;29;20066;-82
2022/01/26 03:54:23;;;;;;;197.43;45.85;;;;;;;0.36;100.00;101777.69;4919893;29;20028;-83
2022/01/26 03:56:49;;;;;;;197.23;45.95;;;;;;;0.50;100.00;101774.47;4919454;29;20036;-82
2022/01/26 03:59:15;;;;;;;196.18;48.00;;;;;;;0.75;100.00;101775.09;4919896;29;20032;-84
2022/01/26 04:01:41;;;;;;;165.85;45.80;;;;;;;0.68;100.00;101775.41;4918716;29;20401;-83
2022/01/26 04:04:06;;;;;;;161.18;44.53;;;;;;;0.56;100.00;101774.22;4919462;29;20048;-83
2022/01/26 04:06:33;;;;;;;183.32;46.92;;;;;;;0.49;100.00;101772.78;4919910;29;20048;-84
2022/01/26 04:08:59;;;;;;;159.98;47.03;;;;;;;0.51;100.00;101766.59;4919599;29;20070;-83
2022/01/26 04:11:37;;;;;;;153.70;47.40;;;;;;;0.50;100.00;101772.72;4919218;29;20482;-83
2022/01/26 04:14:13;;;;;;;143.98;44.30;;;;;;;0.62;100.00;101760.06;4921083;29;20091;-81
2022/01/26 04:16:40;;;;;;;138.57;46.22;;;;;;;0.81;100.00;101763.50;4934592;29;20044;-82
2022/01/26 04:19:07;;;;;;;145.25;42.42;;;;;;;0.78;100.00;101769.72;4919391;29;20043;-83
2022/01/26 04:24:04;;;;;;;172.98;45.35;;;;;;;0.44;100.00;101762.56;4920235;29;20059;-84
2022/01/26 04:26:36;;;;;;;156.73;43.15;;;;;;;0.32;100.00;101760.50;4919494;29;20128;-83
2022/01/26 04:29:07;;;;;;;193.93;45.85;;;;;;;0.25;100.00;101764.28;4919129;29;20079;-84
2022/01/26 04:31:33;;;;;;;140.80;44.50;;;;;;;0.29;100.00;101760.63;4917944;29;20047;-83
2022/01/26 04:33:59;;;;;;;133.60;44.83;;;;;;;0.40;100.00;101766.19;4919269;29;20040;-84
2022/01/26 04:36:34;;;;;;;124.38;43.90;;;;;;;0.55;100.00;101766.44;4922792;29;20048;-82
2022/01/26 04:39:04;;;;;;;126.82;43.72;;;;;;;0.50;100.00;101762.28;4917887;29;20052;-83
2022/01/26 04:44:01;;;;;;;117.40;41.30;;;;;;;0.60;100.00;101767.09;4919241;29;20043;-83
2022/01/26 04:46:27;;;;;;;109.85;42.20;;;;;;;0.49;100.00;101763.22;4918657;29;20113;-83
2022/01/26 04:48:53;;;;;;;118.13;40.80;;;;;;;0.55;100.00;101753.41;4918954;29;20428;-82
2022/01/26 04:51:19;;;;;;;95.45;38.42;;;;;;;0.81;100.00;101766.97;4919064;29;20563;-84
2022/01/26 04:53:44;;;;;;;101.35;37.75;;;;;;;1.09;100.00;101769.19;4919099;29;20144;-84
2022/01/26 04:56:10;;;;;;;101.20;39.85;;;;;;;1.07;100.00;101768.38;4918907;29;20059;-83
2022/01/26 04:58:36;;;;;;;94.65;38.15;;;;;;;0.93;100.00;101760.34;4917150;29;20111;-85
2022/01/26 05:01:02;;;;;;;93.65;37.78;;;;;;;0.96;100.00;101758.44;4920770;29;20063;-83
2022/01/26 05:03:27;;;;;;;93.82;39.38;;;;;;;0.98;100.00;101766.22;4920445;29;20044;-84
2022/01/26 05:05:53;;;;;;;90.45;37.40;;;;;;;0.71;100.00;101762.25;4918342;29;20123;-83
2022/01/26 05:08:18;;;;;;;89.10;36.25;;;;;;;0.57;100.00;101765.47;4901399;29;20040;-84
2022/01/26 05:10:44;;;;;;;86.32;35.95;;;;;;;0.70;100.00;101766.59;4918338;29;20054;-82
2022/01/26 05:13:13;;;;;;;90.03;35.30;;;;;;;0.70;100.00;101760.53;4918116;29;20036;-83
2022/01/26 05:15:38;;;;;;;82.20;34.83;;;;;;;0.50;100.00;101762.28;4918083;29;20115;-83
2022/01/26 05:18:06;;;;;;;84.95;35.22;;;;;;;0.64;100.00;101759.06;4918720;29;20071;-82
2022/01/26 05:20:32;;;;;;;82.65;34.38;;;;;;;0.88;100.00;101762.31;4918086;29;20107;-82
2022/01/26 05:22:58;;;;;;;80.53;34.58;;;;;;;0.80;100.00;101767.88;4918115;29;20135;-83
2022/01/26 05:25:24;;;;;;;79.25;33.45;;;;;;;0.82;100.00;101770.44;4920457;29;20067;-86
2022/01/26 05:27:49;;;;;;;74.20;32.65;;;;;;;0.66;100.00;101772.03;4917843;29;20040;-83
2022/01/26 05:30:15;;;;;;;78.28;34.35;;;;;;;0.71;100.00;101765.69;4918003;29;20052;-83
2022/01/26 05:32:41;;;;;;;73.22;33.08;;;;;;;0.60;100.00;101773.16;4902309;29;20036;-83
2022/01/26 05:35:07;;;;;;;72.70;32.97;;;;;;;0.69;100.00;101766.69;4912561;29;20024;-84
2022/01/26 05:37:39;;;;;;;71.25;30.75;;;;;;;0.97;100.00;101765.34;4902543;29;20055;-83
2022/01/26 05:40:06;;;;;;;72.65;31.48;;;;;;;0.80;100.00;101767.03;4922735;29;20040;-87
2022/01/26 05:42:36;;;;;;;63.45;30.17;;;;;;;0.78;100.00;101768.88;4923408;29;20052;-81
2022/01/26 05:45:16;;;;;;;65.00;29.58;;;;;;;0.87;100.00;101765.84;4924087;29;20545;-83
2022/01/26 05:47:54;;;;;;;59.60;28.17;;;;;;;0.83;100.00;101765.13;4926717;29;20039;-85
2022/01/26 05:50:27;;;;;;;57.67;28.33;;;;;;;0.99;100.00;101760.91;4918995;29;20142;-84
2022/01/26 05:52:52;;;;;;;66.68;30.88;;;;;;;0.84;100.00;101763.38;4930711;29;20036;-85
2022/01/26 05:55:18;;;;;;;62.65;30.08;;;;;;;0.68;100.00;101760.63;4930967;29;20625;-81
2022/01/26 05:57:49;;;;;;;60.95;30.00;;;;;;;0.60;100.00;101764.50;4927676;29;20089;-79
2022/01/26 06:00:16;;;;;;;58.72;29.42;;;;;;;0.58;100.00;101761.09;4931994;29;20088;-82
2022/01/26 06:02:42;;;;;;;63.00;29.83;;;;;;;0.58;100.00;101763.69;4922015;29;20048;-84
2022/01/26 06:05:09;;;;;;;64.93;30.63;;;;;;;0.53;100.00;101759.53;4913944;29;20072;-85
2022/01/26 06:07:35;;;;;;;69.47;31.50;;;;;;;0.59;100.00;101763.66;4914721;29;20876;-87
2022/01/26 06:10:05;;;;;;;79.75;30.92;;;;;;;0.58;100.00;101766.31;4917474;29;20028;-85
2022/01/26 06:12:33;;;;;;;63.22;31.13;;;;;;;0.64;100.00;101766.03;4903503;29;20073;-86
2022/01/26 06:15:37;;;;;;;;;;;;;;;;;;;;;
2022/01/26 06:18:48;;;;;;;74.75;31.77;;;;;;;0.53;100.00;101764.75;4889147;29;20055;-85
2022/01/26 06:21:13;;;;;;;77.75;34.97;;;;;;;0.56;100.00;101773.38;4898853;29;20053;-85
2022/01/26 06:23:39;;;;;;;73.50;33.22;;;;;;;0.43;100.00;101773.88;4906473;29;20048;-86
2022/01/26 06:26:05;;;;;;;74.40;33.63;;;;;;;0.48;100.00;101766.72;4900644;29;20064;-86
2022/01/26 06:28:30;;;;;;;70.50;31.83;;;;;;;0.47;100.00;101770.25;4883794;29;20049;-84
2022/01/26 06:31:00;;;;;;;69.18;32.17;;;;;;;0.34;100.00;101763.88;4907749;29;20044;-83
2022/01/26 06:33:27;;;;;;;67.53;33.15;;;;;;;0.44;100.00;101759.09;4913338;29;20036;-86
2022/01/26 06:35:58;;;;;;;74.30;32.50;;;;;;;0.65;100.00;101759.91;4903801;29;20083;-85
2022/01/26 06:38:32;;;;;;;71.78;32.17;;;;;;;0.44;100.00;101759.09;4904017;29;20509;-82
2022/01/26 06:41:00;;;;;;;73.80;33.30;;;;;;;0.36;100.00;101753.38;4888490;29;20036;-84
2022/01/26 06:43:32;;;;;;;75.75;33.08;;;;;;;0.44;100.00;101752.13;4926280;29;20036;-84
2022/01/26 06:46:05;;;;;;;76.60;34.13;;;;;;;0.33;100.00;101762.16;4923257;29;20040;-82
2022/01/26 06:50:59;;;;;;;81.47;35.97;;;;;;;0.39;100.00;101767.13;4913687;29;20406;-83
2022/01/26 06:53:28;;;;;;;76.30;33.77;;;;;;;0.28;100.00;101773.72;4919608;29;20051;-82
2022/01/26 06:55:54;;;;;;;83.32;35.72;;;;;;;0.30;100.00;101767.50;4925383;29;20036;-86
2022/01/26 06:58:19;;;;;;;79.72;35.92;;;;;;;0.34;100.00;101771.69;4926969;29;20394;-83
2022/01/26 07:00:45;;;;;;;81.68;36.20;;;;;;;0.32;100.00;101768.31;4927192;29;20067;-85
2022/01/26 07:03:11;;;;;;;82.85;35.63;;;;;;;0.31;100.00;101774.44;4921286;29;20519;-90
2022/01/26 07:05:36;;;;;;;79.63;37.25;;;;;;;0.31;100.00;101779.66;4940835;29;20429;-85
2022/01/26 07:08:02;;;;;;;83.05;37.20;;;;;;;0.43;100.00;101786.09;4927269;29;20107;-85
2022/01/26 07:10:32;;;;;;;89.93;38.97;;;;;;;0.42;100.00;101787.00;4921063;29;20036;-86
2022/01/26 07:12:58;;;;;;;85.90;37.35;;;;;;;0.52;100.00;101794.38;4922750;29;20040;-87
2022/01/26 07:23:47;;;;;;;94.50;38.15;;;;;;;0.82;100.00;101806.97;4922302;29;20521;-86
2022/01/26 07:26:13;;;;;;;90.45;36.10;;;;;;;0.91;100.00;101806.56;4910424;29;20032;-87
2022/01/26 07:28:39;;;;;;;105.05;37.90;;;;;;;0.78;100.00;101805.41;4925368;29;20046;-87
2022/01/26 07:31:09;;;;;;;114.55;38.55;;;;;;;0.81;100.00;101802.66;4925683;29;20051;-86
2022/01/26 07:34:00;;;;;;;111.30;39.97;;;;;;;0.89;100.00;101797.94;4908658;29;20055;-83
2022/01/26 07:36:26;;;;;;;125.38;40.17;;;;;;;0.86;100.00;101803.31;4916020;29;20044;-86
2022/01/26 07:38:55;;;;;;;122.38;40.50;;;;;;;0.92;100.00;101797.81;4911098;29;20033;-86
2022/01/26 07:41:24;;;;;;;134.98;42.70;;;;;;;0.94;100.00;101790.75;4907080;29;20123;-87
2022/01/26 07:43:50;;;;;;;136.80;42.13;;;;;;;1.08;100.00;101798.81;4907983;29;20036;-88
2022/01/26 07:46:18;;;;;;;161.05;42.10;;;;;;;1.00;100.00;101798.28;4906840;29;20526;-88
2022/01/26 07:48:47;;;;;;;165.00;43.30;;;;;;;1.06;100.00;101795.44;4911912;29;20095;-84
2022/01/26 07:51:16;;;;;;;165.23;44.60;;;;;;;1.01;100.00;101805.22;4916330;29;20040;-84
2022/01/26 07:53:44;;;;;;;429.75;65.15;;;;;;;1.15;100.00;101808.06;4903791;29;20044;-86
2022/01/26 07:56:10;;;;;;;167.85;43.95;;;;;;;1.08;100.00;101800.56;4903132;29;20044;-84
2022/01/26 07:58:36;;;;;;;169.68;45.15;;;;;;;0.96;100.00;101810.63;4907208;29;20067;-84
2022/01/26 08:01:02;;;;;;;176.23;45.70;;;;;;;0.90;100.00;101802.22;4900917;29;21178;-85
2022/01/26 08:03:33;;;;;;;172.18;47.38;;;;;;;0.92;100.00;101798.66;4911852;29;20044;-84
2022/01/26 08:06:04;;;;;;;239.90;49.58;;;;;;;1.04;100.00;101808.53;4923255;29;20122;-85
2022/01/26 08:08:33;;;;;;;197.63;42.80;;;;;;;0.93;100.00;101809.94;4925014;29;20119;-85
2022/01/26 08:11:00;;;;;;;166.57;41.40;;;;;;;0.84;100.00;101805.13;4924521;29;20083;-83
2022/01/26 08:13:36;;;;;;;163.20;39.40;;;;;;;0.84;100.00;101805.13;4923524;29;20040;-83
2022/01/26 08:16:02;;;;;;;155.00;37.10;;;;;;;0.95;100.00;101808.97;4940793;29;20036;-83
2022/01/26 08:18:27;;;;;;;193.00;41.15;;;;;;;1.15;100.00;101805.44;4923050;29;20048;-82
2022/01/26 08:20:53;;;;;;;151.20;38.50;;;;;;;1.30;100.00;101814.31;4932013;29;20068;-82
2022/01/26 08:23:21;;;;;;;176.20;41.97;;;;;;;1.23;100.00;101808.53;4931090;29;20104;-84
2022/01/26 08:25:59;;;;;;;183.88;39.22;;;;;;;1.29;100.00;101804.81;4928876;29;20115;-87
2022/01/26 08:28:35;;;;;;;351.30;49.33;;;;;;;1.36;100.00;101801.81;4932095;29;20080;-87
2022/01/26 08:31:14;;;;;;;153.98;39.70;;;;;;;1.29;100.00;101799.59;4931974;29;20055;-85
2022/01/26 08:33:41;;;;;;;582.38;62.80;;;;;;;1.24;100.00;101799.78;4909646;29;20041;-88
2022/01/26 08:36:16;;;;;;;145.70;38.50;;;;;;;1.36;100.00;101803.59;4913299;29;20032;-85
2022/01/26 08:38:47;;;;;;;142.43;36.83;;;;;;;1.37;100.00;101800.06;4927677;29;20036;-86
2022/01/26 08:41:19;;;;;;;148.80;39.63;;;;;;;1.47;100.00;101810.00;4928883;29;20474;-90
2022/01/26 08:43:47;;;;;;;144.38;39.35;;;;;;;1.40;100.00;101800.75;4938447;29;20024;-86
2022/01/26 08:46:13;;;;;;;239.73;45.25;;;;;;;1.51;100.00;101808.94;4921723;29;20047;-87
2022/01/26 08:48:38;;;;;;;194.43;43.70;;;;;;;1.74;100.00;101799.13;4910727;29;20064;-86
2022/01/26 08:51:07;;;;;;;140.52;37.30;;;;;;;1.94;100.00;101801.63;4908797;29;20032;-88
2022/01/26 08:53:33;;;;;;;201.10;43.40;;;;;;;2.37;100.00;101800.31;4907233;29;20057;-87
2022/01/26 08:55:59;;;;;;;148.18;37.88;;;;;;;2.50;100.00;101802.22;4903723;29;20120;-87
2022/01/26 08:58:24;;;;;;;135.43;37.47;;;;;;;2.30;100.00;101805.00;4907382;29;20037;-87
2022/01/26 09:01:41;;;;;;;137.93;38.67;;;;;;;2.24;100.00;101807.94;4910356;29;20125;-87
2022/01/26 09:04:41;;;;;;;162.10;41.95;;;;;;;2.23;100.00;101810.63;4891421;29;20116;-88
2022/01/26 09:07:08;;;;;;;138.55;38.92;;;;;;;2.33;100.00;101802.22;4915970;29;20404;-84
2022/01/26 09:09:43;;;;;;;183.82;45.25;;;;;;;2.40;100.00;101806.22;4902351;29;20475;-84
2022/01/26 09:12:15;;;;;;;149.68;43.60;;;;;;;2.50;100.00;101807.44;4902640;29;20072;-86
2022/01/26 09:14:44;;;;;;;149.95;43.85;;;;;;;2.48;100.00;101804.09;4905648;29;20044;-86
2022/01/26 09:17:18;;;;;;;155.35;42.95;;;;;;;2.46;100.00;101808.53;4873464;29;20504;-83
2022/01/26 09:19:45;;;;;;;131.52;41.33;;;;;;;2.55;100.00;101812.47;4888178;29;20131;-85
2022/01/26 09:22:16;;;;;;;148.18;42.25;;;;;;;2.54;100.00;101805.53;4888152;29;20096;-86
2022/01/26 09:24:43;;;;;;;141.15;40.28;;;;;;;2.59;100.00;101806.13;4902803;29;20040;-86
2022/01/26 09:27:14;;;;;;;137.00;39.88;;;;;;;2.66;100.00;101802.25;4915258;29;20429;-84
2022/01/26 09:29:44;;;;;;;196.88;44.55;;;;;;;2.62;100.00;101816.41;4916957;29;20123;-86
2022/01/26 09:32:11;;;;;;;191.80;44.30;;;;;;;2.68;100.00;101810.91;4918124;29;20040;-86
2022/01/26 09:34:39;;;;;;;154.95;42.22;;;;;;;2.86;100.00;101809.06;4922263;29;20027;-86
2022/01/26 09:37:06;;;;;;;152.65;42.78;;;;;;;2.92;100.00;101813.97;4921417;29;20036;-88
2022/01/26 09:40:08;;;;;;;154.73;41.97;;;;;;;2.97;100.00;101817.19;4933566;29;20052;-84
2022/01/26 09:42:36;;;;;;;184.48;43.95;;;;;;;3.21;100.00;101812.41;4866247;29;20129;-87
2022/01/26 11:11:46;;;;;;;129.03;43.93;;;;;;;4.16;100.00;101764.97;4964905;23;20292;-94
2022/01/26 11:15:09;;;;;;;115.97;39.63;;;;;;;4.41;100.00;101764.38;4917737;29;20281;-92
2022/01/26 11:56:14;;;;;;;113.53;38.95;;;;;;;4.52;100.00;101705.03;4523726;23;20293;-85
2022/01/26 11:58:47;;;;;;;125.57;41.42;;;;;;;4.71;100.00;101706.53;4925688;29;20048;-84
2022/01/26 12:04:18;;;;;;;134.57;41.17;;;;;;;4.76;100.00;101693.94;4925190;29;20075;-83
2022/01/26 12:06:50;;;;;;;;;;;;;;;4.83;100.00;101692.63;4911903;29;20108;-83
2022/01/26 12:09:19;;;;;;;104.70;36.57;;;;;;;4.71;100.00;101683.72;4916132;29;20261;-80
2022/01/26 12:12:00;;;;;;;119.15;40.47;;;;;;;4.64;100.00;101678.00;4916386;29;20116;-83
2022/01/26 12:14:27;;;;;;;103.93;36.88;;;;;;;4.90;100.00;101673.75;4915620;29;20044;-82
2022/01/26 12:17:01;;;;;;;111.40;39.20;;;;;;;4.92;100.00;101669.25;4925705;29;20036;-83
2022/01/26 12:19:49;;;;;;;102.53;38.08;;;;;;;5.08;100.00;101669.94;4926411;29;20043;-81
2022/01/26 12:37:35;;;;;;;99.88;35.55;;;;;;;5.07;100.00;101660.34;4914355;29;20047;-82
2022/01/26 12:43:02;;;;;;;85.25;32.90;;;;;;;5.37;100.00;101647.00;4926323;29;20055;-83
2022/01/26 12:45:39;;;;;;;85.20;34.72;;;;;;;5.45;100.00;101643.88;4923742;29;20044;-80
2022/01/26 12:48:09;;;;;;;79.65;33.25;;;;;;;5.31;100.00;101644.78;4914336;29;20097;-81
2022/01/26 12:50:47;;;;;;;92.28;35.70;;;;;;;5.47;100.00;101648.06;4910859;29;20048;-84
2022/01/26 12:53:13;;;;;;;79.35;33.20;;;;;;;5.38;100.00;101643.44;4928285;29;20478;-82
2022/01/26 12:55:41;;;;;;;86.57;34.15;;;;;;;5.32;100.00;101648.25;4911194;29;20072;-81
2022/01/26 12:58:28;;;;;;;70.40;31.77;;;;;;;5.26;100.00;101633.75;4919096;29;20132;-82
2022/01/26 13:01:18;;;;;;;70.10;30.98;;;;;;;5.42;100.00;101639.66;4910273;29;20040;-84
2022/01/26 13:03:47;;;;;;;69.38;30.77;;;;;;;5.37;100.00;101628.59;4904847;29;20055;-83
2022/01/26 13:06:21;;;;;;;71.65;30.85;;;;;;;5.30;100.00;101624.72;4918776;29;20131;-83
2022/01/26 13:08:55;;;;;;;70.70;31.65;;;;;;;5.21;100.00;101631.41;4918375;29;20040;-82
2022/01/26 13:11:31;;;;;;;67.55;31.40;;;;;;;5.28;100.00;101625.75;4917191;29;20054;-84
2022/01/26 13:14:13;;;;;;;82.13;30.15;;;;;;;5.33;100.00;101614.00;4918036;29;20044;-83
2022/01/26 13:16:44;;;;;;;63.88;30.48;;;;;;;5.32;100.00;101622.81;4919025;29;20490;-82
2022/01/26 13:19:58;;;;;;;90.70;32.35;;;;;;;5.29;100.00;101616.91;4919884;29;20067;-87
2022/01/26 13:38:06;;;;;;;84.03;31.92;;;;;;;5.77;100.00;101607.53;4897562;29;20057;-87
2022/01/26 13:39:56;;;;;;;74.25;33.75;;;;;;;5.84;100.00;101606.16;4911673;29;20051;-83
2022/01/26 13:53:06;;;;;;;86.15;33.80;;;;;;;5.99;100.00;101602.50;4916780;29;20394;-87
2022/01/26 14:00:31;;;;;;;85.60;33.42;;;;;;;6.07;100.00;101595.75;4921450;29;20072;-87
2022/01/26 14:03:01;;;;;;;86.90;33.08;;;;;;;5.99;100.00;101607.78;4927560;29;20055;-85
2022/01/26 14:05:27;;;;;;;94.95;34.45;;;;;;;5.87;100.00;101592.81;4924345;29;20040;-86
2022/01/26 14:07:56;;;;;;;106.50;36.55;;;;;;;6.17;100.00;101606.47;4923562;29;20040;-86
2022/01/26 14:10:23;;;;;;;78.05;31.08;;;;;;;6.28;100.00;101605.72;4922625;29;20036;-85
2022/01/26 14:12:49;;;;;;;87.78;34.42;;;;;;;6.16;100.00;101599.53;4919028;29;20146;-85
2022/01/26 14:15:22;;;;;;;76.75;31.77;;;;;;;6.06;100.00;101615.13;4921534;29;20046;-84
2022/01/26 14:25:30;;;;;;;68.25;27.75;;;;;;;6.20;100.00;101595.72;4937849;29;20394;-86
2022/01/26 14:28:02;;;;;;;72.63;30.95;;;;;;;6.06;100.00;101590.59;4923290;29;20109;-85
2022/01/26 14:30:53;;;;;;;74.50;30.50;;;;;;;5.94;100.00;101594.06;4920138;29;20036;-87
2022/01/26 15:30:17;;;;;;;74.67;32.67;;;;;;;5.93;100.00;101595.03;4977497;23;20059;-90
2022/01/26 16:17:24;;;;;;;74.68;32.15;;;;;;;5.73;100.00;101618.25;4875784;29;20034;-83
2022/01/26 18:17:49;;;;;;;97.20;41.42;;;;;;;5.02;100.00;101635.34;4855174;29;20038;-88
2022/01/26 18:26:13;;;;;;;105.55;41.83;;;;;;;5.04;100.00;101612.41;4838408;29;20056;-88
2022/01/26 18:50:25;;;;;;;106.72;43.95;;;;;;;5.27;100.00;101653.81;4823013;29;20054;-86
2022/01/26 18:52:50;;;;;;;112.10;40.72;;;;;;;5.17;100.00;101655.38;4816752;29;20095;-81
2022/01/26 18:55:16;;;;;;;108.20;43.22;;;;;;;5.28;100.00;101655.50;4823836;29;20864;-87
2022/01/26 18:57:42;;;;;;;109.13;44.50;;;;;;;5.18;100.00;101655.25;4814021;29;20043;-84
2022/01/26 19:00:08;;;;;;;123.25;44.38;;;;;;;5.40;100.00;101652.06;4812934;29;20490;-85
2022/01/26 19:02:37;;;;;;;102.68;44.05;;;;;;;5.36;100.00;101647.97;4820674;29;20398;-84
2022/01/26 19:05:05;;;;;;;104.70;44.08;;;;;;;5.11;100.00;101647.88;4820878;29;20068;-81
2022/01/26 19:07:30;;;;;;;107.05;43.60;;;;;;;5.12;100.00;101646.94;4813313;29;20203;-83
2022/01/26 19:09:56;;;;;;;109.20;44.58;;;;;;;5.08;100.00;101646.28;4815266;29;20572;-84
2022/01/26 19:12:24;;;;;;;117.35;46.38;;;;;;;5.22;100.00;101656.75;4809329;29;20533;-83
2022/01/26 19:14:55;;;;;;;119.90;45.75;;;;;;;5.05;100.00;101662.25;4810877;29;20071;-84
2022/01/26 19:17:26;;;;;;;104.22;43.78;;;;;;;5.25;100.00;101649.59;4793656;29;20497;-82
2022/01/26 19:28:26;;;;;;;109.57;45.75;;;;;;;4.97;100.00;101651.38;4869872;29;20056;-90
2022/01/26 19:32:00;;;;;;;124.53;47.10;;;;;;;4.91;100.00;101643.06;4861960;29;20052;-89
2022/01/26 19:45:56;;;;;;;125.47;48.58;;;;;;;5.13;100.00;101664.41;4874170;29;20057;-86
2022/01/26 19:51:02;;;;;;;121.93;47.08;;;;;;;4.94;100.00;101680.47;4876673;29;20054;-88
2022/01/26 19:53:28;;;;;;;115.40;46.92;;;;;;;4.86;100.00;101671.41;4871743;29;20049;-88
2022/01/26 19:55:55;;;;;;;119.00;47.05;;;;;;;4.82;100.00;101669.91;4845528;29;20047;-86
2022/01/26 19:58:20;;;;;;;120.55;48.05;;;;;;;4.81;100.00;101674.31;4879282;29;20503;-86
2022/01/26 20:00:46;;;;;;;121.28;49.13;;;;;;;4.79;100.00;101672.72;4876239;29;20041;-87
2022/01/26 20:03:17;;;;;;;122.65;46.08;;;;;;;4.82;100.00;101677.78;4874229;29;20044;-88
2022/01/26 20:05:43;;;;;;;125.80;48.20;;;;;;;4.78;100.00;101673.66;4868446;29;20037;-87
2022/01/26 20:08:37;;;;;;;117.70;48.75;;;;;;;5.02;100.00;101666.84;4852984;29;20045;-89
2022/01/26 20:11:09;;;;;;;110.25;45.15;;;;;;;5.05;100.00;101683.28;4886279;29;20041;-90
2022/01/26 20:13:42;;;;;;;119.28;48.72;;;;;;;5.07;100.00;101675.31;4865221;29;20045;-88
2022/01/26 20:16:11;;;;;;;123.10;46.63;;;;;;;5.03;100.00;101684.31;4874924;29;20041;-88
2022/01/26 20:18:38;;;;;;;120.40;48.20;;;;;;;4.95;100.00;101686.56;4870725;29;20029;-88
2022/01/26 20:21:09;;;;;;;120.95;50.08;;;;;;;4.85;100.00;101690.72;4860046;29;20037;-86
2022/01/26 20:23:37;;;;;;;125.13;49.75;;;;;;;4.84;100.00;101684.63;4869372;29;20380;-88
2022/01/26 20:26:06;;;;;;;128.82;51.13;;;;;;;4.99;100.00;101688.06;4877725;29;20034;-86